Time;durP1;ratioP1;P1;durP2;ratioP2;P2;SDS_P1;SDS_P2;PMS_P1;PMS_P2;Temp;Humidity;BMP_temperature;BMP_pressure;BME280_temperature;BME280_humidity;BME280_pressure;Samples;Min_cycle;Max_cycle;Signal;HPM_P1;HPM_P2
2023/04/24 00:00:14;;;;;;;5.87;4.40;;;11.80;74.50;;;10.60;64.02;99387.81;10387078;28;97221;-86
2023/04/24 00:05:18;;;;;;;8.23;4.43;;;11.80;74.70;;;10.62;64.45;99382.34;10451561;28;96503;-86
2023/04/24 00:10:21;;;;;;;6.50;4.00;;;11.90;75.00;;;10.70;64.91;99379.56;10390104;28;96623;-87
2023/04/24 00:15:24;;;;;;;5.77;3.40;;;11.90;75.00;;;10.79;64.97;99362.47;10383419;27;96583;-87
2023/04/24 00:20:32;;;;;;;6.47;4.30;;;12.00;75.20;;;10.90;65.46;99369.94;10399647;28;96621;-87
2023/04/24 00:25:35;;;;;;;5.73;4.57;;;12.10;75.60;;;11.03;64.93;99379.06;10400802;28;96576;-87
2023/04/24 00:30:38;;;;;;;4.47;3.10;;;12.20;75.80;;;11.15;64.10;99372.19;10378911;28;98043;-87
2023/04/24 00:35:41;;;;;;;5.30;3.37;;;12.40;76.10;;;11.19;64.53;99366.31;10394907;28;96633;-87
2023/04/24 00:40:44;;;;;;;4.67;3.30;;;12.50;76.20;;;11.30;64.67;99362.31;10379106;28;96649;-87
2023/04/24 00:45:47;;;;;;;6.77;4.30;;;12.50;76.00;;;11.33;64.54;99366.41;10394158;27;98557;-87
2023/04/24 00:50:50;;;;;;;4.80;3.43;;;12.60;76.10;;;11.36;64.19;99355.41;10348533;28;96523;-87
2023/04/24 00:55:54;;;;;;;4.50;3.50;;;12.60;76.10;;;11.38;64.40;99359.50;10381399;28;97780;-86
2023/04/24 01:00:58;;;;;;;7.00;4.70;;;12.60;76.50;;;11.40;64.65;99362.00;10360707;28;98279;-87
2023/04/24 01:06:01;;;;;;;10.93;5.50;;;12.60;76.60;;;11.42;64.87;99360.78;10391742;28;98257;-87
2023/04/24 01:11:05;;;;;;;9.77;5.47;;;12.70;76.90;;;11.39;65.06;99353.16;10380536;28;96980;-87
2023/04/24 01:16:08;;;;;;;11.67;5.80;;;12.70;77.30;;;11.40;64.84;99360.16;10393831;27;97533;-87
2023/04/24 01:21:18;;;;;;;5.23;4.03;;;12.70;77.60;;;11.35;65.10;99354.59;10397046;28;96587;-89
2023/04/24 01:26:23;;;;;;;10.37;5.37;;;12.70;77.80;;;11.31;65.90;99355.97;10396781;28;96566;-87
2023/04/24 01:31:26;;;;;;;4.93;4.00;;;12.60;78.10;;;11.30;66.16;99343.69;10389005;28;96686;-87
2023/04/24 01:36:32;;;;;;;7.37;4.30;;;12.60;78.70;;;11.27;66.74;99354.72;10393654;28;96637;-88
2023/04/24 01:41:35;;;;;;;9.87;5.70;;;12.60;79.00;;;11.26;66.81;99351.22;10378397;28;96668;-88
2023/04/24 01:46:38;;;;;;;6.50;4.27;;;12.50;79.40;;;11.28;67.54;99337.75;10375658;28;96712;-88
2023/04/24 01:51:41;;;;;;;6.60;3.93;;;12.60;79.90;;;11.31;67.16;99333.88;10379554;28;96740;-90
2023/04/24 01:56:46;;;;;;;4.37;3.30;;;12.60;80.00;;;11.39;66.86;99331.06;10399529;27;98344;-87
2023/04/24 02:01:49;;;;;;;7.13;4.57;;;12.60;80.00;;;11.42;66.45;99320.88;10385413;27;96611;-86
2023/04/24 02:06:52;;;;;;;6.77;4.73;;;12.70;79.90;;;11.40;67.50;99308.78;10404082;28;96686;-86
2023/04/24 02:11:56;;;;;;;7.67;4.90;;;12.70;80.20;;;11.34;70.12;99294.44;10402243;28;96486;-86
2023/04/24 02:16:59;;;;;;;8.13;5.77;;;12.70;81.50;;;11.32;70.72;99299.09;10398703;27;97568;-84
2023/04/24 02:22:01;;;;;;;9.00;5.83;;;12.70;82.80;;;11.28;71.88;99297.03;10398134;28;96633;-85
2023/04/24 02:27:05;;;;;;;7.87;6.13;;;12.60;83.90;;;11.18;72.64;99292.88;10380230;28;96704;-85
2023/04/24 02:32:11;;;;;;;9.70;7.60;;;12.50;84.40;;;11.14;72.80;99291.63;10376690;28;96691;-85
2023/04/24 02:37:15;;;;;;;9.43;7.50;;;12.50;85.40;;;11.12;74.66;99276.88;10381993;28;96576;-85
2023/04/24 02:42:18;;;;;;;10.63;7.60;;;12.40;87.10;;;11.08;75.16;99270.28;10394433;28;96956;-84
2023/04/24 02:47:21;;;;;;;12.13;9.07;;;12.40;88.40;;;11.12;74.74;99266.25;10400454;28;96634;-85
2023/04/24 02:52:24;;;;;;;17.03;13.87;;;12.40;89.50;;;11.15;75.39;99252.53;10370964;27;96463;-85
2023/04/24 02:57:27;;;;;;;16.07;12.03;;;12.40;90.40;;;11.18;76.11;99253.00;10416028;28;96969;-87
2023/04/24 03:02:30;;;;;;;14.03;10.20;;;12.50;91.00;;;11.20;76.35;99253.59;10383552;28;96949;-86
2023/04/24 03:07:33;;;;;;;8.20;6.20;;;12.50;91.80;;;11.21;76.08;99249.09;10365538;27;96682;-86
2023/04/24 03:12:36;;;;;;;8.93;7.53;;;12.50;91.80;;;11.26;75.76;99258.16;10382290;28;96597;-86
2023/04/24 03:17:39;;;;;;;11.90;8.07;;;12.50;92.10;;;11.31;75.34;99256.75;10401482;28;97354;-86
2023/04/24 03:22:42;;;;;;;10.47;5.70;;;12.60;92.50;;;11.30;75.75;99265.75;10401365;28;97224;-84
2023/04/24 03:27:45;;;;;;;11.07;7.13;;;12.60;92.60;;;11.26;75.90;99252.81;10391090;28;96513;-85
2023/04/24 03:32:49;;;;;;;10.40;6.73;;;12.60;92.80;;;11.28;75.50;99247.34;10385936;28;96672;-85
2023/04/24 03:37:52;;;;;;;8.00;6.73;;;12.60;92.90;;;11.29;76.25;99254.28;10400330;28;98086;-85
2023/04/24 03:42:55;;;;;;;17.00;11.53;;;12.60;93.60;;;11.27;75.87;99245.66;10398573;28;96819;-85
2023/04/24 03:47:58;;;;;;;16.43;12.53;;;12.60;93.60;;;11.30;75.85;99236.50;10381450;28;96595;-85
2023/04/24 03:53:01;;;;;;;10.90;8.90;;;12.60;93.70;;;11.33;76.05;99244.88;10367141;28;96612;-85
2023/04/24 03:58:05;;;;;;;27.40;17.17;;;12.60;93.90;;;11.35;76.26;99240.22;10397349;28;96639;-85
2023/04/24 04:03:08;;;;;;;52.87;28.27;;;12.60;94.10;;;11.35;76.42;99239.38;10395961;28;97275;-86
2023/04/24 04:08:12;;;;;;;49.47;28.73;;;12.70;94.40;;;11.35;77.35;99245.53;10379195;28;97882;-86
2023/04/24 04:13:15;;;;;;;22.63;15.53;;;12.70;94.70;;;11.39;77.49;99251.25;10397774;28;96753;-86
2023/04/24 04:18:18;;;;;;;24.33;14.83;;;12.70;95.10;;;11.43;77.52;99248.03;10374162;27;98086;-83
2023/04/24 04:23:21;;;;;;;17.63;10.47;;;12.70;95.40;;;11.43;77.71;99245.34;10396062;28;96728;-83
2023/04/24 04:28:26;;;;;;;15.93;9.40;;;12.70;95.40;;;11.47;77.38;99243.97;10395191;28;96724;-83
2023/04/24 04:33:30;;;;;;;23.97;10.70;;;12.80;95.50;;;11.50;75.80;99232.09;10379921;28;96893;-84
2023/04/24 04:38:34;;;;;;;17.13;9.87;;;12.90;95.20;;;11.52;76.08;99230.91;10380295;28;97440;-84
2023/04/24 04:43:39;;;;;;;9.67;6.20;;;12.90;95.30;;;11.60;75.55;99243.19;10397654;27;98336;-84
2023/04/24 04:48:42;;;;;;;12.10;6.70;;;12.90;95.20;;;11.63;74.27;99240.13;10364518;28;96584;-84
2023/04/24 04:53:45;;;;;;;9.83;6.90;;;12.90;94.90;;;11.68;73.42;99236.88;10373302;28;96608;-84
2023/04/24 04:58:49;;;;;;;10.87;5.87;;;13.00;94.60;;;11.74;73.02;99236.91;10380383;28;96897;-84
2023/04/24 05:03:52;;;;;;;6.90;5.40;;;13.00;94.50;;;11.75;71.89;99235.06;10379183;28;96949;-90
2023/04/24 05:08:56;;;;;;;13.13;6.80;;;13.10;94.10;;;11.80;72.03;99227.31;10384687;27;96503;-87
2023/04/24 05:14:00;;;;;;;8.53;5.83;;;13.10;94.00;;;11.87;71.48;99225.50;10393134;28;96721;-87
2023/04/24 05:19:03;;;;;;;9.30;6.43;;;13.20;93.70;;;12.02;71.63;99228.84;10372250;28;96572;-86
2023/04/24 05:24:06;;;;;;;10.87;5.83;;;13.30;93.70;;;12.13;70.93;99223.97;10394040;28;97012;-86
2023/04/24 05:29:09;;;;;;;8.63;6.00;;;13.40;93.50;;;12.22;70.28;99228.06;10364311;27;96659;-83
2023/04/24 05:34:12;;;;;;;11.43;6.83;;;13.50;93.30;;;12.25;69.14;99235.66;10384219;28;96854;-84
2023/04/24 05:39:15;;;;;;;10.23;6.20;;;13.60;93.00;;;12.43;70.18;99235.09;10403325;28;96570;-84
2023/04/24 05:44:18;;;;;;;12.07;7.30;;;13.70;93.10;;;12.52;69.54;99226.66;10404090;28;96551;-84
2023/04/24 05:49:22;;;;;;;8.40;5.70;;;13.80;92.90;;;12.69;68.41;99248.41;10403268;28;96646;-84
2023/04/24 05:54:25;;;;;;;8.27;6.63;;;14.00;92.70;;;12.72;67.32;99225.88;10391383;27;96670;-84
2023/04/24 05:59:28;;;;;;;8.47;6.63;;;14.10;92.20;;;12.74;68.89;99229.16;10408226;27;96472;-81
2023/04/24 06:04:32;;;;;;;11.60;7.03;;;14.10;92.30;;;12.71;67.73;99227.69;10378686;28;96590;-85
2023/04/24 06:09:36;;;;;;;10.67;7.37;;;14.10;92.00;;;12.66;67.80;99232.84;10401050;28;96520;-84
2023/04/24 06:14:39;;;;;;;7.87;6.63;;;14.10;91.90;;;12.65;69.00;99235.69;10401552;28;96570;-85
2023/04/24 06:19:42;;;;;;;10.97;6.77;;;14.00;92.20;;;12.85;68.53;99240.03;10421392;28;96638;-86
2023/04/24 06:24:47;;;;;;;8.63;6.80;;;14.10;92.10;;;12.94;68.07;99235.28;10368291;28;96748;-84
2023/04/24 06:29:54;;;;;;;8.77;6.90;;;14.20;92.00;;;13.03;68.00;99226.06;10403000;28;96634;-83
2023/04/24 06:34:57;;;;;;;10.43;7.07;;;14.30;91.80;;;13.16;67.71;99225.22;10381370;27;96669;-84
2023/04/24 06:40:01;;;;;;;9.20;6.07;;;14.40;91.80;;;13.32;67.37;99232.00;10383299;28;98604;-83
2023/04/24 06:45:05;;;;;;;8.87;7.03;;;14.60;91.70;;;13.40;65.74;99223.75;10390389;28;97410;-84
2023/04/24 06:50:08;;;;;;;12.10;7.28;;;14.70;91.30;;;13.38;66.46;99220.47;10403559;27;96497;-84
2023/04/24 06:55:11;;;;;;;9.20;6.55;;;14.70;91.50;;;13.46;66.21;99224.75;10422222;28;96778;-84
2023/04/24 07:00:15;;;;;;;10.27;7.15;;;14.80;91.20;;;13.37;66.48;99225.00;10404800;28;96600;-84
2023/04/24 07:05:19;;;;;;;11.32;7.63;;;14.80;91.20;;;13.53;66.33;99229.03;10420192;27;96818;-91
2023/04/24 07:10:23;;;;;;;8.77;7.10;;;14.90;91.30;;;13.74;67.23;99233.28;10413534;27;96681;-84
2023/04/24 07:15:26;;;;;;;9.70;7.03;;;15.00;91.40;;;13.89;67.08;99228.50;10417576;28;96435;-83
2023/04/24 07:20:29;;;;;;;11.57;7.70;;;15.20;91.40;;;13.93;66.83;99220.88;10396514;28;96659;-87
2023/04/24 07:25:32;;;;;;;12.65;7.32;;;15.20;91.40;;;14.01;66.80;99214.47;10374745;28;97131;-82
2023/04/24 07:30:35;;;;;;;9.77;7.10;;;15.30;91.40;;;14.14;66.88;99215.19;10398626;28;96680;-84
2023/04/24 07:35:38;;;;;;;9.90;6.70;;;15.50;91.50;;;14.35;66.69;99211.38;10397190;28;96802;-81
2023/04/24 07:40:41;;;;;;;8.45;6.97;;;15.60;91.40;;;14.59;67.16;99209.78;10399142;28;96711;-81
2023/04/24 07:45:45;;;;;;;9.75;7.28;;;15.80;91.50;;;14.83;65.77;99208.16;10382547;28;96626;-82
2023/04/24 07:50:48;;;;;;;8.32;6.03;;;16.00;91.30;;;15.17;65.75;99201.44;10383931;28;96493;-81
2023/04/24 07:55:51;;;;;;;8.23;6.30;;;16.30;91.40;;;15.39;64.86;99198.31;10382699;28;99287;-81
2023/04/24 08:00:54;;;;;;;14.02;8.40;;;16.50;91.00;;;15.51;63.66;99189.31;10400085;28;96506;-81
2023/04/24 08:05:57;;;;;;;7.30;6.05;;;16.70;90.70;;;15.55;63.85;99200.41;10363418;28;96622;-80
2023/04/24 08:11:01;;;;;;;9.02;6.47;;;16.70;90.50;;;15.75;64.01;99200.19;10382668;28;96659;-81
2023/04/24 08:16:04;;;;;;;7.38;5.78;;;16.90;90.70;;;16.01;64.32;99188.28;10399659;28;97483;-81
2023/04/24 08:21:07;;;;;;;9.20;6.40;;;17.10;90.70;;;16.05;61.88;99186.78;10382180;28;98251;-81
2023/04/24 08:26:11;;;;;;;9.27;7.22;;;17.30;89.70;;;16.02;63.05;99184.59;10399608;28;96532;-81
2023/04/24 08:31:14;;;;;;;9.30;6.88;;;17.20;90.00;;;16.20;63.77;99181.84;10383352;28;96609;-81
2023/04/24 08:36:17;;;;;;;7.18;6.30;;;17.30;90.30;;;16.40;63.03;99180.72;10381460;28;96912;-80
2023/04/24 08:41:21;;;;;;;10.43;5.88;;;17.60;90.20;;;16.50;62.69;99189.84;10381248;28;96767;-80
2023/04/24 08:46:25;;;;;;;7.88;5.55;;;17.70;89.70;;;16.62;63.13;99178.31;10399012;28;96897;-80
2023/04/24 08:51:30;;;;;;;8.38;5.53;;;17.70;90.00;;;16.95;61.72;99170.50;10382723;28;96531;-82
2023/04/24 08:56:37;;;;;;;9.25;6.07;;;18.10;89.70;;;17.53;61.23;99179.53;10375629;27;98160;-81
2023/04/24 09:01:41;;;;;;;10.50;5.80;;;18.60;88.90;;;17.82;59.23;99175.03;10382371;28;96782;-80
2023/04/24 09:06:44;;;;;;;9.52;6.43;;;18.90;86.80;;;18.36;58.42;99165.53;10376191;27;96949;-81
2023/04/24 09:11:50;;;;;;;9.20;6.25;;;19.10;86.50;;;18.60;55.64;99147.34;10416171;28;97359;-82
2023/04/24 09:16:53;;;;;;;8.85;5.68;;;19.40;84.60;;;18.46;56.53;99159.50;10383898;28;97056;-81
2023/04/24 09:21:56;;;;;;;7.07;5.18;;;19.30;84.20;;;18.14;57.27;99161.91;10385166;28;97832;-80
2023/04/24 09:27:01;;;;;;;6.80;5.60;;;19.20;83.90;;;17.91;57.35;99160.97;10388345;28;96695;-81
2023/04/24 09:32:25;;;;;;;6.88;5.45;;;19.10;83.80;;;17.77;57.85;99158.81;10387003;28;97333;-80
2023/04/24 09:37:29;;;;;;;7.72;5.07;;;19.00;83.20;;;18.01;57.82;99152.28;10368140;28;97294;-81
2023/04/24 09:42:33;;;;;;;6.40;4.88;;;19.10;83.40;;;18.43;55.95;99141.16;10371702;28;97069;-80
2023/04/24 09:47:40;;;;;;;8.95;5.25;;;19.50;82.40;;;18.83;54.62;99141.00;10383318;28;96601;-81
2023/04/24 09:53:05;;;;;;;5.65;4.20;;;20.00;80.90;;;19.22;52.78;99122.94;10400766;28;96590;-81
2023/04/24 09:58:09;;;;;;;7.13;4.95;;;20.30;79.00;;;19.56;50.40;99133.59;10385517;28;97341;-81
2023/04/24 10:03:12;;;;;;;7.32;4.18;;;20.60;75.60;;;19.43;50.26;99129.41;10417664;28;96603;-82
2023/04/24 10:08:15;;;;;;;5.60;3.90;;;20.50;74.60;;;19.24;50.49;99117.28;10379285;28;96598;-81
2023/04/24 10:13:19;;;;;;;5.55;3.60;;;20.30;74.10;;;19.18;49.51;99121.00;10367402;28;97938;-81
2023/04/24 10:18:23;;;;;;;6.20;4.78;;;20.30;73.40;;;19.00;50.46;99119.41;10380022;27;96848;-82
2023/04/24 10:23:28;;;;;;;6.07;3.90;;;20.20;73.70;;;18.88;51.29;99111.44;10404012;28;96423;-82
2023/04/24 10:28:33;;;;;;;10.55;5.45;;;20.10;74.10;;;19.04;52.13;99103.59;10382985;28;97319;-82
2023/04/24 10:33:38;;;;;;;7.30;4.72;;;20.20;75.00;;;19.43;50.11;99097.06;10382347;28;98416;-81
2023/04/24 10:38:46;;;;;;;5.18;4.22;;;20.50;73.90;;;19.85;49.56;99096.47;10381820;28;98228;-83
2023/04/24 10:44:09;;;;;;;7.63;5.05;;;20.90;73.30;;;19.94;48.71;99094.09;10384227;28;97438;-81
2023/04/24 10:49:15;;;;;;;6.35;4.55;;;21.10;71.80;;;19.97;49.23;99082.78;10373111;27;97040;-82
2023/04/24 10:54:47;;;;;;;5.65;5.00;;;21.20;71.90;;;19.65;49.77;99090.84;10400553;28;96570;-81
2023/04/24 11:00:12;;;;;;;7.47;4.80;;;20.90;71.70;;;19.25;50.76;99095.53;10391068;27;96907;-82
2023/04/24 11:05:17;;;;;;;6.47;5.07;;;20.60;72.50;;;19.02;52.17;99101.16;10399300;28;96651;-83
2023/04/24 11:10:27;;;;;;;6.40;4.90;;;20.30;73.90;;;18.82;52.54;99092.78;10395773;28;98399;-82
2023/04/24 11:15:30;;;;;;;8.20;5.43;;;20.10;74.20;;;18.56;52.12;99086.19;10409233;28;96428;-81
2023/04/24 11:20:33;;;;;;;8.75;4.90;;;19.80;74.20;;;18.38;53.22;99100.72;10384807;28;96487;-80
2023/04/24 11:25:36;;;;;;;7.55;5.47;;;19.60;74.80;;;18.29;54.14;99094.13;10402298;28;96473;-80
2023/04/24 11:30:40;;;;;;;12.27;5.25;;;19.50;75.60;;;18.25;54.62;99090.31;10383188;28;96518;-79
2023/04/24 11:35:43;;;;;;;5.95;4.40;;;19.50;76.20;;;18.22;55.41;99102.34;10382682;28;96600;-80
2023/04/24 11:40:48;;;;;;;6.85;5.70;;;19.40;76.80;;;18.12;54.75;99091.44;10383214;28;96453;-80
2023/04/24 11:45:52;;;;;;;7.72;5.30;;;19.40;77.00;;;18.07;54.43;99099.44;10400358;28;96608;-79
2023/04/24 11:50:55;;;;;;;10.20;5.35;;;19.30;77.10;;;18.02;55.74;99092.09;10400173;28;96639;-81
2023/04/24 11:56:04;;;;;;;8.93;5.53;;;19.30;77.30;;;17.97;56.37;99094.69;10382534;28;96522;-82
2023/04/24 12:01:07;;;;;;;10.48;5.93;;;19.20;77.70;;;17.90;60.00;99094.03;10384043;28;96416;-80
2023/04/24 12:06:11;;;;;;;8.27;5.97;;;19.20;79.50;;;17.78;61.02;99083.34;10416933;28;96641;-80
2023/04/24 12:11:17;;;;;;;10.77;6.30;;;19.10;80.50;;;17.72;61.65;99073.56;10383167;28;96652;-80
2023/04/24 12:16:20;;;;;;;8.15;5.93;;;19.00;80.60;;;17.53;63.17;99075.59;10385075;28;97530;-80
2023/04/24 12:21:26;;;;;;;10.63;7.60;;;18.90;82.40;;;17.25;65.28;99068.34;10400392;28;96533;-81
2023/04/24 12:26:29;;;;;;;8.85;6.40;;;18.70;84.30;;;17.01;66.74;99058.72;10382121;28;96543;-82
2023/04/24 12:31:32;;;;;;;9.48;6.13;;;18.40;85.30;;;16.82;68.98;99058.88;10396714;28;97153;-82
2023/04/24 12:36:36;;;;;;;9.15;6.78;;;18.20;86.80;;;16.74;68.51;99048.53;10374438;28;96772;-83
2023/04/24 12:41:59;;;;;;;8.90;5.47;;;18.10;87.70;;;16.75;68.84;99050.16;10374056;28;97390;-82
2023/04/24 12:47:02;;;;;;;6.60;5.53;;;18.10;88.50;;;16.79;69.02;99037.91;10402739;27;98331;-81
2023/04/24 12:52:05;;;;;;;8.93;6.90;;;18.10;88.90;;;16.83;69.57;99030.19;10381599;28;96542;-82
2023/04/24 12:57:08;;;;;;;13.07;6.85;;;18.10;89.40;;;16.98;69.34;99022.47;10398019;28;96417;-82
2023/04/24 13:02:11;;;;;;;7.82;5.55;;;18.30;89.60;;;17.30;69.42;99019.31;10414837;28;96614;-82
2023/04/24 13:07:15;;;;;;;6.30;4.30;;;18.60;90.30;;;17.69;68.96;99012.19;10343470;28;96614;-82
2023/04/24 13:12:18;;;;;;;6.20;3.60;;;18.90;90.50;;;17.98;67.19;98996.03;10398169;28;96390;-82
2023/04/24 13:17:22;;;;;;;5.50;3.63;;;19.20;90.10;;;18.12;64.23;98989.28;10391619;28;97046;-83
2023/04/24 13:22:25;;;;;;;7.15;4.60;;;19.40;88.70;;;18.16;63.23;98980.47;10409953;27;98208;-84
2023/04/24 13:27:28;;;;;;;5.88;3.47;;;19.40;87.70;;;18.04;60.30;98976.25;10380816;28;96575;-84
2023/04/24 13:32:33;;;;;;;9.52;3.78;;;19.30;85.70;;;17.85;62.90;98973.81;10379386;28;96552;-84
2023/04/24 13:37:36;;;;;;;9.02;4.90;;;19.10;86.60;;;17.80;62.01;98973.72;10378681;28;96732;-85
2023/04/24 13:42:40;;;;;;;6.63;4.18;;;19.00;86.50;;;17.79;60.73;98973.97;10409657;28;97426;-85
2023/04/24 13:47:42;;;;;;;7.28;4.28;;;19.00;86.00;;;17.83;61.57;98970.56;10379134;28;96671;-84
2023/04/24 13:52:45;;;;;;;11.70;4.82;;;19.10;86.10;;;17.87;61.25;98977.09;10393032;28;96621;-89
2023/04/24 13:57:49;;;;;;;13.85;6.47;;;19.10;86.20;;;17.60;61.98;98971.50;10401926;28;97290;-87
2023/04/24 14:02:52;;;;;;;8.23;4.78;;;18.90;86.40;;;17.34;64.04;98978.31;10400073;28;96480;-84
2023/04/24 14:07:56;;;;;;;10.25;5.55;;;18.60;87.60;;;17.15;64.69;98970.69;10420808;28;96634;-85
2023/04/24 14:12:59;;;;;;;11.55;6.07;;;18.30;88.40;;;16.88;65.27;98973.94;10382958;28;97510;-84
2023/04/24 14:18:03;;;;;;;11.45;6.57;;;18.10;89.50;;;16.70;66.79;98990.19;10402166;28;96568;-84
2023/04/24 14:23:08;;;;;;;10.93;6.00;;;17.90;90.40;;;16.56;67.67;98993.13;10366500;28;97291;-85
2023/04/24 14:28:11;;;;;;;6.50;4.15;;;17.70;90.90;;;16.45;68.32;99002.00;10414976;28;96546;-86
2023/04/24 14:33:14;;;;;;;10.38;5.93;;;17.60;91.20;;;16.24;68.67;98999.91;10408730;27;97592;-85
2023/04/24 14:38:17;;;;;;;8.98;5.38;;;17.40;91.40;;;16.01;70.70;99012.28;10414250;28;96579;-84
2023/04/24 14:43:20;;;;;;;10.73;5.80;;;17.20;92.10;;;15.73;71.97;99004.09;10394484;28;96523;-84
2023/04/24 14:48:24;;;;;;;11.07;6.35;;;17.00;93.00;;;15.62;73.55;99012.88;10394414;27;97193;-84
2023/04/24 14:53:27;;;;;;;10.73;7.50;;;16.80;93.40;;;15.57;74.38;99021.59;10398705;28;96658;-84
2023/04/24 14:58:30;;;;;;;7.72;5.53;;;16.70;94.00;;;15.46;73.71;99023.19;10382777;28;97663;-84
2023/04/24 15:03:33;;;;;;;7.88;5.35;;;16.70;94.70;;;15.38;73.95;99023.50;10382702;27;98294;-85
2023/04/24 15:08:37;;;;;;;6.32;4.45;;;16.50;95.10;;;15.30;73.75;99021.16;10380322;28;97273;-84
2023/04/24 15:13:40;;;;;;;5.60;4.22;;;16.50;95.40;;;15.22;74.42;99018.78;10387560;27;97926;-82
2023/04/24 15:18:43;;;;;;;9.00;4.78;;;16.40;95.90;;;15.21;75.65;99027.88;10388686;28;97642;-82
2023/04/24 15:23:46;;;;;;;7.68;4.90;;;16.40;96.50;;;15.12;75.67;99024.69;10410632;28;96658;-81
2023/04/24 15:28:50;;;;;;;6.22;4.07;;;16.30;97.00;;;15.00;75.31;99023.81;10374053;28;96482;-85
2023/04/24 15:33:53;;;;;;;9.70;5.03;;;16.20;97.30;;;14.89;75.94;99024.56;10379637;28;96712;-81
2023/04/24 15:38:56;;;;;;;10.88;4.47;;;16.10;97.70;;;14.87;76.25;99023.97;10394558;28;96659;-81
2023/04/24 15:43:59;;;;;;;4.97;3.40;;;16.00;98.00;;;14.92;76.17;99034.81;10415123;28;96831;-93
2023/04/24 15:49:03;;;;;;;4.88;3.65;;;16.10;98.00;;;14.95;75.36;99023.69;10398912;28;96642;-83
2023/04/24 15:54:07;;;;;;;4.53;3.60;;;16.10;97.90;;;14.92;74.26;99037.47;10371774;28;96636;-84
2023/04/24 15:59:10;;;;;;;5.53;3.70;;;16.10;97.40;;;14.84;74.17;99032.44;10382871;28;96501;-83
2023/04/24 16:04:13;;;;;;;7.22;4.00;;;16.00;97.40;;;14.78;75.02;99028.81;10399977;28;96579;-83
2023/04/24 16:09:17;;;;;;;5.43;3.30;;;15.90;97.70;;;14.64;76.05;99038.03;10382897;28;98468;-82
2023/04/24 16:14:20;;;;;;;5.93;3.30;;;15.80;98.00;;;14.53;76.73;99031.56;10390261;28;97007;-83
2023/04/24 16:19:23;;;;;;;5.65;3.60;;;15.70;98.70;;;14.43;77.37;99025.88;10393714;28;97039;-83
2023/04/24 16:24:28;;;;;;;6.47;4.20;;;15.60;99.00;;;14.32;78.19;99032.75;10399408;28;96792;-83
2023/04/24 16:29:31;;;;;;;5.93;3.33;;;15.50;99.30;;;14.23;77.86;99028.75;10396611;28;98331;-85
2023/04/24 16:34:34;;;;;;;5.07;2.72;;;15.40;99.70;;;14.13;78.09;99026.56;10413113;28;97931;-83
2023/04/24 16:39:37;;;;;;;4.57;2.60;;;15.40;99.90;;;14.11;78.77;99033.16;10396906;28;97294;-84
2023/04/24 16:44:41;;;;;;;5.43;2.30;;;15.30;99.90;;;14.05;78.55;99026.84;10394666;28;98475;-81
2023/04/24 16:49:45;;;;;;;4.45;3.30;;;15.20;99.90;;;13.98;78.85;99023.41;10397877;28;96849;-81
2023/04/24 16:54:48;;;;;;;3.92;2.80;;;15.20;99.90;;;13.92;79.09;99026.97;10415298;28;96489;-81
2023/04/24 16:59:51;;;;;;;5.63;3.33;;;15.10;99.90;;;13.87;79.44;99034.81;10399714;28;96585;-81
2023/04/24 17:04:54;;;;;;;5.00;3.53;;;15.10;99.90;;;13.80;79.85;99034.84;10377884;28;96861;-81
2023/04/24 17:09:57;;;;;;;7.97;4.03;;;15.00;99.90;;;13.75;80.14;99045.34;10381955;28;96554;-80
2023/04/24 17:15:00;;;;;;;5.38;2.92;;;14.90;99.90;;;13.73;80.69;99052.75;10395630;28;96913;-80
2023/04/24 17:20:04;;;;;;;9.60;5.30;;;15.00;99.90;;;13.69;80.94;99048.09;10379787;28;96664;-81
2023/04/24 17:25:23;;;;;;;6.13;3.90;;;14.90;99.90;;;13.60;81.38;99051.00;10392745;27;96558;-81
2023/04/24 17:30:26;;;;;;;8.20;3.03;;;14.90;99.90;;;13.48;82.08;99055.38;10378901;28;97025;-81
2023/04/24 17:35:29;;;;;;;3.40;2.60;;;14.80;99.90;;;13.41;82.72;99059.94;10384117;28;98329;-82
2023/04/24 17:40:33;;;;;;;4.15;2.60;;;14.60;99.90;;;13.32;83.12;99058.56;10380157;28;96876;-80
2023/04/24 17:45:36;;;;;;;5.90;3.17;;;14.60;99.90;;;13.23;83.40;99062.50;10380918;28;97714;-80
2023/04/24 17:50:39;;;;;;;7.70;4.10;;;14.50;99.90;;;13.11;83.27;99071.13;10400262;28;96593;-80
2023/04/24 17:55:43;;;;;;;7.27;3.83;;;14.40;99.90;;;13.02;82.96;99069.75;10375559;27;96926;-80
2023/04/24 18:00:46;;;;;;;4.53;2.57;;;14.30;99.90;;;12.93;83.04;99083.50;10400377;28;96765;-80
2023/04/24 18:05:49;;;;;;;5.47;3.03;;;14.20;99.90;;;12.83;83.13;99079.44;10394178;28;96620;-81
2023/04/24 18:10:53;;;;;;;3.83;2.50;;;14.10;99.90;;;12.80;83.37;99079.84;10390912;27;96617;-85
2023/04/24 18:15:56;;;;;;;5.77;3.57;;;14.00;99.90;;;12.70;83.21;99090.13;10399344;27;98318;-89
2023/04/24 18:20:59;;;;;;;6.57;3.77;;;14.00;99.90;;;12.64;83.37;99090.13;10370622;28;96669;-82
2023/04/24 18:26:03;;;;;;;4.50;2.73;;;13.90;99.90;;;12.56;83.48;99094.66;10393523;28;96907;-83
2023/04/24 18:31:07;;;;;;;4.83;3.33;;;13.80;99.90;;;12.51;83.75;99096.31;10398760;28;96685;-88
2023/04/24 18:36:10;;;;;;;4.33;3.57;;;13.70;99.90;;;12.50;83.83;99102.69;10329374;28;1611688;-87
2023/04/24 18:41:13;;;;;;;7.53;3.93;;;13.80;99.90;;;12.48;84.06;99116.22;10385307;27;97127;-88
2023/04/24 18:46:17;;;;;;;3.87;2.60;;;13.70;99.90;;;12.48;83.56;99116.22;10396856;28;96611;-86
2023/04/24 18:51:19;;;;;;;3.27;2.60;;;13.70;99.90;;;12.45;82.19;99118.47;10407218;27;98199;-89
2023/04/24 18:56:22;;;;;;;3.43;1.93;;;13.70;99.90;;;12.44;81.63;99125.63;10414482;28;98012;-89
2023/04/24 19:01:26;;;;;;;3.40;2.50;;;13.70;99.90;;;12.41;81.35;99122.56;10410905;27;98358;-83
2023/04/24 19:06:30;;;;;;;4.30;3.17;;;13.60;99.90;;;12.36;81.49;99125.84;10398927;28;96548;-82
2023/04/24 19:11:33;;;;;;;3.57;2.53;;;13.60;99.90;;;12.31;81.49;99129.13;10397930;28;96704;-82
2023/04/24 19:16:36;;;;;;;4.17;3.07;;;13.50;99.90;;;12.30;81.47;99132.00;10380237;28;97997;-82
2023/04/24 19:21:40;;;;;;;3.30;2.07;;;13.50;99.90;;;12.27;81.31;99132.41;10392151;27;98574;-82
2023/04/24 19:26:44;;;;;;;3.30;1.90;;;13.50;99.90;;;12.24;80.95;99128.31;10408103;28;96879;-82
2023/04/24 19:31:47;;;;;;;3.07;2.20;;;13.50;99.90;;;12.23;80.57;99133.81;10406802;27;96660;-83
2023/04/24 19:36:50;;;;;;;1.93;1.30;;;13.40;99.90;;;12.23;80.02;99126.66;10393083;27;96790;-82
2023/04/24 19:41:55;;;;;;;1.87;1.40;;;13.40;99.90;;;12.25;79.98;99129.13;10377263;28;97439;-82
2023/04/24 19:46:59;;;;;;;3.30;1.73;;;13.50;99.90;;;12.24;80.19;99119.50;10366761;28;97892;-84
2023/04/24 19:52:02;;;;;;;2.07;1.37;;;13.50;99.90;;;12.22;80.16;99124.19;10379174;27;96908;-82
2023/04/24 19:57:05;;;;;;;3.87;1.93;;;13.40;99.90;;;12.24;80.23;99116.84;10377504;28;96589;-83
2023/04/24 20:02:10;;;;;;;6.43;2.20;;;13.50;99.90;;;12.25;80.67;99113.16;10405400;28;97308;-83
2023/04/24 20:07:13;;;;;;;5.13;2.80;;;13.50;99.90;;;12.26;80.97;99106.78;10378179;27;97434;-82
2023/04/24 20:12:18;;;;;;;3.73;2.10;;;13.50;99.90;;;12.23;82.07;99104.53;10405666;28;96692;-83
2023/04/24 20:17:21;;;;;;;3.47;2.33;;;13.50;99.90;;;12.17;82.64;99110.66;10375865;27;96503;-83
2023/04/24 20:22:24;;;;;;;4.00;2.40;;;13.40;99.90;;;12.15;82.94;99115.38;10400792;27;97527;-82
2023/04/24 20:27:29;;;;;;;2.60;2.00;;;13.40;99.90;;;12.15;83.36;99113.53;10396725;28;96646;-82
2023/04/24 20:32:32;;;;;;;5.27;2.07;;;13.40;99.90;;;12.21;83.28;99114.56;10398328;27;96807;-82
2023/04/24 20:37:35;;;;;;;3.87;2.37;;;13.40;99.90;;;12.21;82.41;99118.06;10387579;28;96580;-84
2023/04/24 20:42:39;;;;;;;2.33;1.80;;;13.40;99.90;;;12.24;82.05;99108.84;10409278;27;96534;-82
2023/04/24 20:47:41;;;;;;;2.83;1.80;;;13.50;99.90;;;12.27;81.25;99105.75;10377341;28;97427;-83
2023/04/24 20:52:45;;;;;;;2.37;1.70;;;13.50;99.90;;;12.28;80.46;99108.22;10395212;28;98055;-84
2023/04/24 20:57:48;;;;;;;2.10;1.73;;;13.50;99.90;;;12.26;80.04;99104.94;10393698;28;96595;-83